createdAt,value
2018-09-28T00:01:59.104Z,98702.00
2018-09-28T00:04:29.250Z,98698.75
2018-09-28T00:06:59.727Z,98698.44
2018-09-28T00:09:29.853Z,98695.94
2018-09-28T00:11:59.913Z,98698.58
2018-09-28T00:14:29.935Z,98701.27
2018-09-28T00:17:00.041Z,98696.58
2018-09-28T00:19:30.266Z,98692.48
2018-09-28T00:22:00.264Z,98692.05
2018-09-28T00:24:30.440Z,98693.00
2018-09-28T00:27:00.436Z,98691.08
2018-09-28T00:29:30.468Z,98686.45
2018-09-28T00:32:00.513Z,98685.73
2018-09-28T00:34:30.558Z,98679.27
2018-09-28T00:37:00.579Z,98676.22
2018-09-28T00:39:31.065Z,98677.62
2018-09-28T00:42:01.155Z,98670.40
2018-09-28T00:44:31.150Z,98669.58
2018-09-28T00:47:01.207Z,98670.84
2018-09-28T00:49:31.199Z,98656.94
2018-09-28T00:52:01.271Z,98659.98
2018-09-28T00:54:31.311Z,98656.62
2018-09-28T00:57:01.582Z,98647.53
2018-09-28T00:59:31.644Z,98648.07
2018-09-28T01:02:01.634Z,98643.29
2018-09-28T01:04:31.750Z,98641.42
2018-09-28T01:07:01.803Z,98645.86
2018-09-28T01:09:31.814Z,98644.91
2018-09-28T01:12:01.836Z,98641.01
2018-09-28T01:14:31.874Z,98642.34
2018-09-28T01:17:01.880Z,98636.04
2018-09-28T01:19:31.909Z,98638.70
2018-09-28T01:22:01.963Z,98638.35
2018-09-28T01:24:32.047Z,98630.97
2018-09-28T01:27:02.142Z,98626.22
2018-09-28T01:29:32.389Z,98625.02
2018-09-28T01:32:02.384Z,98621.57
2018-09-28T01:34:32.431Z,98620.34
2018-09-28T01:37:02.475Z,98618.59
2018-09-28T01:39:32.715Z,98613.05
2018-09-28T01:42:02.739Z,98606.72
2018-09-28T01:44:32.805Z,98604.57
2018-09-28T01:47:02.782Z,98601.56
2018-09-28T01:49:32.796Z,98596.78
2018-09-28T01:52:02.865Z,98602.42
2018-09-28T01:54:33.027Z,98600.80
2018-09-28T01:57:03.069Z,98594.79
2018-09-28T01:59:33.285Z,98595.77
2018-09-28T02:02:03.299Z,98589.31
2018-09-28T02:04:33.399Z,98591.11
2018-09-28T02:07:03.463Z,98590.73
2018-09-28T02:09:33.475Z,98587.34
2018-09-28T02:12:03.481Z,98589.94
2018-09-28T02:14:33.861Z,98583.45
2018-09-28T02:17:03.824Z,98579.44
2018-09-28T02:19:34.768Z,98587.70
2018-09-28T02:22:04.809Z,98577.31
2018-09-28T02:24:34.989Z,98578.73
2018-09-28T02:27:05.293Z,98569.78
2018-09-28T02:29:35.368Z,98572.81
2018-09-28T02:32:05.544Z,98568.52
2018-09-28T02:34:35.604Z,98568.95
2018-09-28T02:37:05.600Z,98567.66
2018-09-28T02:39:35.740Z,98562.95
2018-09-28T02:42:05.753Z,98567.43
2018-09-28T02:44:35.809Z,98561.09
2018-09-28T02:47:05.917Z,98556.26
2018-09-28T02:49:35.967Z,98557.11
2018-09-28T02:52:06.029Z,98555.81
2018-09-28T02:54:36.083Z,98556.29
2018-09-28T02:57:06.103Z,98557.20
2018-09-28T02:59:36.705Z,98552.94
2018-09-28T03:02:06.714Z,98555.53
2018-09-28T03:04:36.789Z,98547.36
2018-09-28T03:07:06.886Z,98547.36
2018-09-28T03:09:37.794Z,98547.92
2018-09-28T03:12:07.899Z,98545.87
2018-09-28T03:14:37.993Z,98545.55
2018-09-28T03:17:08.115Z,98543.95
2018-09-28T03:19:38.416Z,98542.77
2018-09-28T03:22:08.507Z,98542.83
2018-09-28T03:24:38.511Z,98544.66
2018-09-28T03:27:08.547Z,98545.53
2018-09-28T03:29:38.618Z,98543.39
2018-09-28T03:32:09.081Z,98551.49
2018-09-28T03:34:39.065Z,98549.84
2018-09-28T03:37:09.477Z,98555.58
2018-09-28T03:39:39.619Z,98557.34
2018-09-28T03:42:09.666Z,98562.64
2018-09-28T03:44:39.664Z,98558.01
2018-09-28T03:47:09.702Z,98552.00
2018-09-28T03:49:39.850Z,98554.18
2018-09-28T03:52:09.963Z,98552.98
2018-09-28T03:54:39.973Z,98550.05
2018-09-28T03:57:10.007Z,98554.42
2018-09-28T03:59:40.106Z,98551.91
2018-09-28T04:02:10.183Z,98554.97
2018-09-28T04:04:40.311Z,98550.75
2018-09-28T04:07:10.380Z,98551.27
2018-09-28T04:09:40.434Z,98549.56
2018-09-28T04:12:10.414Z,98556.48
2018-09-28T04:14:40.595Z,98549.52
2018-09-28T04:17:10.978Z,98552.90
2018-09-28T04:19:40.951Z,98553.39
2018-09-28T04:22:11.152Z,98550.47
2018-09-28T04:24:41.282Z,98547.10
2018-09-28T04:27:15.993Z,98545.00
2018-09-28T04:29:46.091Z,98549.33
2018-09-28T04:32:16.144Z,98548.58
2018-09-28T04:34:46.458Z,98548.05
2018-09-28T04:37:16.585Z,98548.59
2018-09-28T04:39:46.648Z,98543.03
2018-09-28T04:42:16.745Z,98555.64
2018-09-28T04:44:46.825Z,98554.37
2018-09-28T04:47:16.817Z,98562.55
2018-09-28T04:49:46.836Z,98560.43
2018-09-28T04:52:16.940Z,98559.59
2018-09-28T04:54:47.298Z,98566.13
2018-09-28T04:57:17.301Z,98564.31
2018-09-28T04:59:47.366Z,98563.88
2018-09-28T05:02:18.201Z,98565.84
2018-09-28T05:04:48.292Z,98571.47
2018-09-28T05:07:18.321Z,98568.44
2018-09-28T05:09:49.116Z,98568.41
2018-09-28T05:12:19.128Z,98569.30
2018-09-28T05:14:49.723Z,98564.60
2018-09-28T05:17:19.845Z,98567.69
2018-09-28T05:19:49.892Z,98559.94
2018-09-28T05:22:20.620Z,98567.63
2018-09-28T05:24:50.701Z,98566.77
2018-09-28T05:27:21.090Z,98570.59
2018-09-28T05:29:51.575Z,98577.41
2018-09-28T05:32:23.057Z,98571.69
2018-09-28T05:34:56.084Z,98568.13
2018-09-28T05:37:26.668Z,98573.27
2018-09-28T05:39:57.951Z,98571.97
2018-09-28T05:42:28.972Z,98565.83
2018-09-28T05:45:00.480Z,98571.38
2018-09-28T05:47:30.752Z,98576.05
2018-09-28T05:50:01.196Z,98582.92
2018-09-28T05:52:31.703Z,98581.44
2018-09-28T05:55:01.916Z,98578.64
2018-09-28T05:57:32.031Z,98578.03
2018-09-28T06:00:07.837Z,98589.86
2018-09-28T06:02:43.225Z,98586.13
2018-09-28T06:05:18.821Z,98589.30
2018-09-28T06:07:49.793Z,98591.63
2018-09-28T06:10:23.451Z,98595.64
2018-09-28T06:12:53.458Z,98597.45
2018-09-28T06:15:24.122Z,98588.52
2018-09-28T06:17:54.198Z,98598.07
2018-09-28T06:20:24.912Z,98596.75
2018-09-28T06:22:55.566Z,98596.41
2018-09-28T06:25:26.870Z,98595.95
2018-09-28T06:27:57.960Z,98598.09
2018-09-28T06:30:28.022Z,98600.63
2018-09-28T06:32:58.626Z,98598.80
2018-09-28T06:35:30.241Z,98601.65
2018-09-28T06:38:01.324Z,98604.55
2018-09-28T06:40:33.246Z,98608.79
2018-09-28T06:43:03.593Z,98609.48
2018-09-28T06:45:34.791Z,98609.98
2018-09-28T06:48:05.112Z,98610.47
2018-09-28T06:50:36.304Z,98619.55
2018-09-28T06:53:07.458Z,98625.87
2018-09-28T06:55:38.394Z,98626.05
2018-09-28T06:58:08.597Z,98622.45
2018-09-28T07:00:39.657Z,98624.52
2018-09-28T07:03:10.893Z,98621.95
2018-09-28T07:05:41.137Z,98622.12
2018-09-28T07:08:11.298Z,98624.72
2018-09-28T07:10:42.558Z,98625.81
2018-09-28T07:13:12.835Z,98632.40
2018-09-28T07:15:44.135Z,98627.41
2018-09-28T07:18:15.348Z,98622.16
2018-09-28T07:20:45.791Z,98620.85
2018-09-28T07:23:16.369Z,98632.87
2018-09-28T07:25:47.159Z,98636.63
2018-09-28T07:28:18.414Z,98631.33
2018-09-28T07:30:50.455Z,98639.60
2018-09-28T07:33:20.600Z,98633.24
2018-09-28T07:35:51.341Z,98630.81
2018-09-28T07:38:21.586Z,98635.47
2018-09-28T07:40:52.972Z,98635.69
2018-09-28T07:43:23.366Z,98635.46
2018-09-28T07:45:54.724Z,98639.44
2018-09-28T07:48:26.165Z,98637.67
2018-09-28T07:50:56.715Z,98633.09
2018-09-28T07:53:28.226Z,98635.17
2018-09-28T07:55:59.335Z,98635.09
2018-09-28T07:58:30.773Z,98635.62
2018-09-28T08:01:00.958Z,98635.78
2018-09-28T08:03:31.754Z,98636.23
2018-09-28T08:06:02.278Z,98642.81
2018-09-28T08:08:32.668Z,98636.27
2018-09-28T08:11:02.930Z,98635.71
2018-09-28T08:13:33.909Z,98638.55
2018-09-28T08:16:04.383Z,98639.98
2018-09-28T08:18:34.662Z,98640.42
2018-09-28T08:21:05.537Z,98634.80
2018-09-28T08:23:37.609Z,98639.77
2018-09-28T08:26:08.508Z,98638.73
2018-09-28T08:28:39.453Z,98633.60
2018-09-28T08:31:10.279Z,98639.42
2018-09-28T08:33:41.831Z,98632.16
2018-09-28T08:36:12.113Z,98633.30
2018-09-28T08:38:43.456Z,98630.05
2018-09-28T08:41:14.384Z,98636.97
2018-09-28T08:43:47.074Z,98638.04
2018-09-28T08:46:17.282Z,98642.83
2018-09-28T08:48:48.548Z,98644.20
2018-09-28T08:51:19.481Z,98639.12
2018-09-28T08:53:50.425Z,98636.52
2018-09-28T08:56:22.122Z,98636.49
2018-09-28T08:58:53.195Z,98641.43
2018-09-28T09:01:23.363Z,98633.05
2018-09-28T09:03:55.976Z,98629.03
2018-09-28T09:06:27.476Z,98627.23
2018-09-28T09:09:01.108Z,98627.47
2018-09-28T09:11:32.170Z,98630.09
2018-09-28T09:14:03.309Z,98627.44
2018-09-28T09:16:34.995Z,98629.50
2018-09-28T09:19:06.367Z,98633.67
2018-09-28T09:21:38.219Z,98631.39
2018-09-28T09:24:09.332Z,98625.73
2018-09-28T09:26:40.632Z,98629.86
2018-09-28T09:29:11.013Z,98624.36
2018-09-28T09:31:41.239Z,98626.17
2018-09-28T09:34:12.555Z,98622.72
2018-09-28T09:36:43.636Z,98613.61
2018-09-28T09:39:14.523Z,98617.06
2018-09-28T09:41:45.941Z,98619.48
2018-09-28T09:44:16.088Z,98615.80
2018-09-28T09:46:48.604Z,98619.51
2018-09-28T09:49:19.092Z,98612.56
2018-09-28T09:51:50.023Z,98612.27
2018-09-28T09:54:20.493Z,98614.99
2018-09-28T09:56:51.688Z,98612.98
2018-09-28T09:59:22.695Z,98603.17
2018-09-28T10:01:57.979Z,98600.31
2018-09-28T10:04:28.696Z,98598.30
2018-09-28T10:06:59.553Z,98596.71
2018-09-28T10:09:31.659Z,98595.69
2018-09-28T10:12:01.964Z,98593.82
2018-09-28T10:14:33.585Z,98594.55
2018-09-28T10:17:05.479Z,98588.92
2018-09-28T10:19:36.184Z,98588.59
2018-09-28T10:22:09.455Z,98589.70
2018-09-28T10:24:40.547Z,98585.53
2018-09-28T10:27:11.064Z,98577.77
2018-09-28T10:29:43.215Z,98580.66
2018-09-28T10:32:15.319Z,98578.73
2018-09-28T10:34:45.826Z,98578.31
2018-09-28T10:37:17.017Z,98574.08
2018-09-28T10:39:49.060Z,98579.41
2018-09-28T10:42:19.575Z,98572.02
2018-09-28T10:44:50.033Z,98570.34
2018-09-28T10:47:20.977Z,98569.79
2018-09-28T10:49:51.976Z,98562.46
2018-09-28T10:52:23.421Z,98562.48
2018-09-28T10:54:53.967Z,98557.19
2018-09-28T10:57:25.125Z,98559.39
2018-09-28T10:59:55.277Z,98551.81
2018-09-28T11:02:26.593Z,98548.50
2018-09-28T11:05:00.731Z,98545.71
2018-09-28T11:07:32.181Z,98545.82
2018-09-28T11:10:03.292Z,98550.45
2018-09-28T11:12:33.621Z,98545.33
2018-09-28T11:15:04.528Z,98542.20
2018-09-28T11:17:34.977Z,98554.81
2018-09-28T11:20:06.191Z,98549.73
2018-09-28T11:22:36.627Z,98540.19
2018-09-28T11:25:07.705Z,98547.68
2018-09-28T11:27:38.820Z,98539.75
2018-09-28T11:30:10.224Z,98539.30
2018-09-28T11:32:40.485Z,98543.09
2018-09-28T11:35:11.384Z,98540.68
2018-09-28T11:37:42.085Z,98540.33
2018-09-28T11:40:12.574Z,98536.34
2018-09-28T11:42:43.350Z,98535.61
2018-09-28T11:45:14.906Z,98538.32
2018-09-28T11:47:45.401Z,98541.83
2018-09-28T11:50:17.514Z,98533.36
2018-09-28T11:52:49.481Z,98530.90
2018-09-28T11:55:20.671Z,98526.98
2018-09-28T11:57:51.823Z,98527.83
2018-09-28T12:00:22.813Z,98526.34
2018-09-28T12:02:53.512Z,98527.23
2018-09-28T12:05:24.921Z,98515.11
2018-09-28T12:07:55.064Z,98518.25
2018-09-28T12:10:25.937Z,98515.09
2018-09-28T12:12:56.554Z,98504.86
2018-09-28T12:15:31.507Z,98499.39
2018-09-28T12:18:03.472Z,98492.23
2018-09-28T12:20:35.691Z,98496.41
2018-09-28T12:23:06.733Z,98490.66
2018-09-28T12:25:38.151Z,98487.55
2018-09-28T12:28:10.372Z,98480.03
2018-09-28T12:30:44.573Z,98487.27
2018-09-28T12:33:21.332Z,98480.05
2018-09-28T12:35:52.149Z,98476.65
2018-09-28T12:38:23.798Z,98481.95
2018-09-28T12:40:54.208Z,98485.01
2018-09-28T12:43:25.471Z,98478.77
2018-09-28T12:45:56.692Z,98473.46
2018-09-28T12:48:26.875Z,98468.22
2018-09-28T12:50:58.158Z,98469.82
2018-09-28T12:53:29.189Z,98468.31
2018-09-28T12:56:00.957Z,98466.39
2018-09-28T12:58:34.145Z,98468.05
2018-09-28T13:01:05.787Z,98457.17
2018-09-28T13:03:36.000Z,98465.71
2018-09-28T13:06:06.798Z,98465.23
2018-09-28T13:08:38.787Z,98456.09
2018-09-28T13:11:09.548Z,98450.80
2018-09-28T13:13:41.944Z,98451.00
2018-09-28T13:16:12.227Z,98452.23
2018-09-28T13:18:44.875Z,98456.63
2018-09-28T13:21:15.537Z,98447.48
2018-09-28T13:23:46.671Z,98449.31
2018-09-28T13:26:18.706Z,98446.94
2018-09-28T13:28:49.925Z,98444.02
2018-09-28T13:31:20.735Z,98442.47
2018-09-28T13:33:52.222Z,98444.98
2018-09-28T13:36:24.662Z,98444.00
2018-09-28T13:38:56.977Z,98447.11
2018-09-28T13:41:29.190Z,98446.72
2018-09-28T13:43:59.902Z,98446.54
2018-09-28T13:46:31.482Z,98441.20
2018-09-28T13:49:02.083Z,98437.90
2018-09-28T13:51:33.408Z,98434.56
2018-09-28T13:54:03.990Z,98426.82
2018-09-28T13:56:35.728Z,98436.00
2018-09-28T13:59:06.104Z,98435.98
2018-09-28T14:01:36.422Z,98432.69
2018-09-28T14:04:07.675Z,98436.50
2018-09-28T14:06:38.728Z,98435.48
2018-09-28T14:09:10.024Z,98435.80
2018-09-28T14:11:40.884Z,98438.88
2018-09-28T14:14:11.330Z,98446.94
2018-09-28T14:16:42.553Z,98437.82
2018-09-28T14:19:13.698Z,98441.59
2018-09-28T14:21:44.696Z,98439.77
2018-09-28T14:24:15.962Z,98444.77
2018-09-28T14:26:49.826Z,98445.57
2018-09-28T14:29:23.665Z,98445.90
2018-09-28T14:31:54.999Z,98444.89
2018-09-28T14:34:25.385Z,98439.09
2018-09-28T14:36:55.856Z,98444.55
2018-09-28T14:39:26.591Z,98435.05
2018-09-28T14:41:57.082Z,98438.80
2018-09-28T14:44:27.356Z,98432.16
2018-09-28T14:46:57.483Z,98434.45
2018-09-28T14:49:29.301Z,98433.38
2018-09-28T14:52:00.057Z,98428.49
2018-09-28T14:54:31.385Z,98435.56
2018-09-28T14:57:01.694Z,98438.83
2018-09-28T14:59:32.226Z,98429.63
2018-09-28T15:02:03.667Z,98433.66
2018-09-28T15:04:34.874Z,98441.13
2018-09-28T15:07:05.394Z,98438.07
2018-09-28T15:09:35.502Z,98440.59
2018-09-28T15:12:05.985Z,98437.28
2018-09-28T15:14:39.168Z,98444.39
2018-09-28T15:17:10.494Z,98444.02
2018-09-28T15:19:42.671Z,98447.01
2018-09-28T15:22:14.329Z,98443.34
2018-09-28T15:24:45.300Z,98441.45
2018-09-28T15:27:15.439Z,98442.28
2018-09-28T15:29:45.911Z,98439.27
2018-09-28T15:32:16.457Z,98445.41
2018-09-28T15:34:46.656Z,98450.33
2018-09-28T15:37:17.870Z,98457.11
2018-09-28T15:39:48.400Z,98461.53
2018-09-28T15:42:18.875Z,98459.31
2018-09-28T15:44:50.280Z,98446.68
2018-09-28T15:47:21.359Z,98465.13
2018-09-28T15:49:52.946Z,98482.83
2018-09-28T15:52:23.697Z,98475.31
2018-09-28T15:54:55.243Z,98471.86
2018-09-28T15:57:26.549Z,98482.04
2018-09-28T15:59:58.305Z,98479.91
2018-09-28T16:02:29.715Z,98486.11
2018-09-28T16:05:00.139Z,98488.14
2018-09-28T16:07:30.404Z,98501.06
2018-09-28T16:10:01.014Z,98512.85
2018-09-28T16:12:32.144Z,98513.88
2018-09-28T16:15:02.479Z,98513.58
2018-09-28T16:17:34.232Z,98521.61
2018-09-28T16:20:05.291Z,98528.13
2018-09-28T16:22:36.680Z,98532.94
2018-09-28T16:25:08.177Z,98543.25
2018-09-28T16:27:39.284Z,98547.47
2018-09-28T16:30:09.422Z,98552.37
2018-09-28T16:32:40.135Z,98553.60
2018-09-28T16:35:10.978Z,98565.78
2018-09-28T16:37:42.303Z,98568.41
2018-09-28T16:40:16.407Z,98569.86
2018-09-28T16:42:47.583Z,98572.16
2018-09-28T16:45:18.523Z,98579.81
2018-09-28T16:47:51.194Z,98593.41
2018-09-28T16:50:22.666Z,98609.16
2018-09-28T16:52:55.572Z,98597.13
2018-09-28T16:55:28.432Z,98615.59
2018-09-28T16:58:00.124Z,98618.23
2018-09-28T17:00:33.822Z,98616.98
2018-09-28T17:03:04.904Z,98624.61
2018-09-28T17:05:35.827Z,98627.92
2018-09-28T17:08:06.129Z,98632.05
2018-09-28T17:10:37.598Z,98639.36
2018-09-28T17:13:09.391Z,98650.94
2018-09-28T17:15:40.493Z,98646.76
2018-09-28T17:18:10.994Z,98656.97
2018-09-28T17:20:41.293Z,98659.97
2018-09-28T17:23:13.018Z,98666.33
2018-09-28T17:25:43.631Z,98664.31
2018-09-28T17:28:15.629Z,98668.39
2018-09-28T17:30:46.733Z,98676.64
2018-09-28T17:33:18.009Z,98678.47
2018-09-28T17:35:48.468Z,98674.66
2018-09-28T17:38:18.656Z,98680.56
2018-09-28T17:40:50.302Z,98691.63
2018-09-28T17:43:22.685Z,98694.95
2018-09-28T17:45:54.317Z,98696.23
2018-09-28T17:48:28.306Z,98697.84
2018-09-28T17:50:58.831Z,98711.01
2018-09-28T17:53:29.707Z,98718.53
2018-09-28T17:56:02.075Z,98723.73
2018-09-28T17:58:33.092Z,98732.08
2018-09-28T18:01:03.257Z,98734.22
2018-09-28T18:03:33.882Z,98747.36
2018-09-28T18:06:06.954Z,98754.92
2018-09-28T18:08:39.366Z,98747.43
2018-09-28T18:11:10.487Z,98746.44
2018-09-28T18:13:40.946Z,98759.12
2018-09-28T18:16:18.615Z,98758.98
2018-09-28T18:18:50.817Z,98773.42
2018-09-28T18:21:23.193Z,98768.17
2018-09-28T18:23:55.004Z,98775.13
2018-09-28T18:26:25.383Z,98777.36
2018-09-28T18:28:58.945Z,98784.00
2018-09-28T18:31:29.627Z,98798.13
2018-09-28T18:34:01.425Z,98798.30
2018-09-28T18:36:32.284Z,98806.16
2018-09-28T18:39:07.447Z,98808.08
2018-09-28T18:41:39.242Z,98813.40
2018-09-28T18:44:12.757Z,98820.73
2018-09-28T18:46:46.894Z,98823.66
2018-09-28T18:49:26.330Z,98831.84
2018-09-28T18:51:57.944Z,98833.13
2018-09-28T18:54:31.602Z,98836.22
2018-09-28T18:57:03.354Z,98840.52
2018-09-28T18:59:34.910Z,98857.11
2018-09-28T19:02:07.666Z,98846.95
2018-09-28T19:04:40.570Z,98860.72
2018-09-28T19:07:12.561Z,98860.38
2018-09-28T19:09:46.808Z,98865.94
2018-09-28T19:12:17.176Z,98873.60
2018-09-28T19:14:47.592Z,98874.63
2018-09-28T19:17:23.405Z,98881.06
2018-09-28T19:19:55.902Z,98890.12
2018-09-28T19:22:30.973Z,98897.64
2018-09-28T19:25:02.732Z,98899.87
2018-09-28T19:27:33.958Z,98903.73
2018-09-28T19:30:11.253Z,98904.59
2018-09-28T19:32:47.032Z,98904.71
2018-09-28T19:35:18.781Z,98910.63
2018-09-28T19:37:49.128Z,98919.39
2018-09-28T19:40:19.869Z,98923.59
2018-09-28T19:42:50.034Z,98928.16
2018-09-28T19:45:21.354Z,98939.64
2018-09-28T19:47:56.211Z,98940.21
2018-09-28T19:50:26.386Z,98938.25
2018-09-28T19:52:57.665Z,98947.14
2018-09-28T19:55:28.484Z,98950.61
2018-09-28T19:57:59.268Z,98945.31
2018-09-28T20:00:31.526Z,98956.81
2018-09-28T20:03:04.015Z,98962.71
2018-09-28T20:05:37.202Z,98959.44
2018-09-28T20:08:08.188Z,98966.55
2018-09-28T20:10:40.689Z,98975.06
2018-09-28T20:13:11.159Z,98979.90
2018-09-28T20:15:44.313Z,98993.80
2018-09-28T20:18:14.553Z,98999.99
2018-09-28T20:20:46.862Z,98995.21
2018-09-28T20:23:18.321Z,98996.47
2018-09-28T20:25:49.958Z,99004.03
2018-09-28T20:28:20.472Z,99001.92
2018-09-28T20:30:52.618Z,99003.88
2018-09-28T20:33:28.315Z,98997.84
2018-09-28T20:35:59.730Z,99005.38
2018-09-28T20:38:31.409Z,99001.56
2018-09-28T20:41:03.880Z,99009.02
2018-09-28T20:43:34.910Z,99015.95
2018-09-28T20:46:06.187Z,99018.68
2018-09-28T20:48:37.864Z,99011.82
2018-09-28T20:51:10.534Z,99028.53
2018-09-28T20:53:41.312Z,99031.20
2018-09-28T20:56:11.886Z,99034.67
2018-09-28T20:58:43.270Z,99031.16
2018-09-28T21:01:15.972Z,99036.09
2018-09-28T21:03:47.025Z,99027.48
2018-09-28T21:06:19.306Z,99030.89
2018-09-28T21:08:51.798Z,99039.03
2018-09-28T21:11:24.144Z,99045.25
2018-09-28T21:13:57.028Z,99043.86
2018-09-28T21:16:28.761Z,99033.53
2018-09-28T21:19:00.677Z,99037.50
2018-09-28T21:21:31.567Z,99030.74
2018-09-28T21:24:02.819Z,99030.94
2018-09-28T21:26:33.829Z,99022.38
2018-09-28T21:29:05.235Z,99022.42
2018-09-28T21:31:36.263Z,99033.73
2018-09-28T21:34:06.542Z,99043.34
2018-09-28T21:36:37.339Z,99039.77
2018-09-28T21:39:09.470Z,99038.02
2018-09-28T21:41:45.133Z,99042.71
2018-09-28T21:44:15.404Z,99048.39
2018-09-28T21:46:48.473Z,99055.79
2018-09-28T21:49:19.490Z,99055.02
2018-09-28T21:51:51.728Z,99063.01
2018-09-28T21:54:24.202Z,99060.44
2018-09-28T21:56:54.598Z,99059.71
2018-09-28T21:59:25.557Z,99059.41
2018-09-28T22:01:59.303Z,99068.63
2018-09-28T22:04:32.429Z,99065.61
2018-09-28T22:07:04.376Z,99056.16
2018-09-28T22:09:35.774Z,99055.92
2018-09-28T22:12:07.059Z,99061.83
2018-09-28T22:14:39.474Z,99065.70
2018-09-28T22:17:09.938Z,99070.23
2018-09-28T22:19:41.850Z,99069.83
2018-09-28T22:22:15.740Z,99065.01
2018-09-28T22:24:48.287Z,99073.80
2018-09-28T22:27:18.438Z,99077.35
2018-09-28T22:29:50.438Z,99077.16
2018-09-28T22:32:21.505Z,99077.37
2018-09-28T22:34:54.672Z,99075.45
2018-09-28T22:37:27.084Z,99068.85
2018-09-28T22:40:00.312Z,99064.89
2018-09-28T22:42:31.891Z,99079.92
2018-09-28T22:45:03.721Z,99087.05
2018-09-28T22:47:35.219Z,99090.41
2018-09-28T22:50:08.030Z,99092.26
2018-09-28T22:52:39.391Z,99091.48
2018-09-28T22:55:12.477Z,99084.73
2018-09-28T22:57:42.619Z,99095.00
2018-09-28T23:00:14.865Z,99092.81
2018-09-28T23:02:47.157Z,99092.30
2018-09-28T23:05:19.541Z,99096.72
2018-09-28T23:07:52.069Z,99105.97
2018-09-28T23:10:24.995Z,99107.53
2018-09-28T23:12:57.331Z,99110.97
2018-09-28T23:15:28.309Z,99119.42
2018-09-28T23:18:00.781Z,99116.16
2018-09-28T23:20:31.667Z,99120.56
2018-09-28T23:23:04.392Z,99116.49
2018-09-28T23:25:34.569Z,99124.14
2018-09-28T23:28:05.463Z,99135.00
2018-09-28T23:30:44.333Z,99139.64
2018-09-28T23:33:15.881Z,99143.80
2018-09-28T23:35:48.425Z,99150.89
2018-09-28T23:38:19.862Z,99144.27
2018-09-28T23:40:52.197Z,99141.48
2018-09-28T23:43:23.636Z,99152.09
2018-09-28T23:45:54.706Z,99151.91
2018-09-28T23:48:24.891Z,99159.70
2018-09-28T23:50:57.790Z,99163.33
2018-09-28T23:53:30.567Z,99164.00
2018-09-28T23:56:03.200Z,99159.02
2018-09-28T23:58:37.661Z,99161.70
